Terminal Aerodrome Forecast
Issued by NWS

Home | Current Version | Previous Version | Text Only | Print | Product List | Glossary On
Versions: 1 2 3 4 5 6 7 8 9 10 11 12 13 14 15 16
000
FTUS43 KMQT 060535
TAFIWD
TAF
KIWD 060535Z 0606/0706 19013G21KT 6SM -SHRA VCTS BKN040CB
     FM060800 19009KT 5SM -SHRA BR SCT025 OVC040 WS010/22035KT
     FM061000 19009KT 5SM -SHRA BR SCT025 OVC040
     FM061400 19008KT 4SM -SHRA BR OVC015
     FM061600 29010KT 3SM -SHRA BR OVC007
     FM062100 34008KT 3SM -SHRA BR OVC003
     FM070200 34009KT P6SM BKN025
      AMD LTD TO CLD VIS AND WIND=

USA.gov is the U.S. government's official web portal to all federal, state and local government web resources and services.